Canovanas, PR (00729)

2:52 PM AST on July 29, 2016 (GMT -0400)
Ciudad Jardin | | Change Station

Elev 10 ft 18.37 °N, 65.93 °W | Updated 3 minutes ago

Scattered Clouds
Scattered Clouds
90.2 °F
Feels Like 101 °F
N
2.0
Wind Variable Wind from SE
Gusts 14.0 mph

Today
High -- | Low -- °F
--% Chance of Precip.
Yesterday
High -- | Low -- °F
Precip. -- in
Pressure 29.98 in
Visibility 10.0 miles
Clouds Few 2200 ft
Scattered Clouds 4200 ft
Scattered Clouds 8000 ft
Heat Index 101 °F
Dew Point 75 °F
Humidity 61%
Rainfall 0.05 in
Snow Depth Not available.
6:00 AM 6:59 PM
Waning Crescent, 20% visible
METAR TJSJ 291756Z 08015G24KT 10SM FEW022 SCT042 SCT080 32/23 A2998 RMK AO2 SLP151 VCSH N-S 60005 T03170233 10328 20261 58015
Pressure 29.98 in
Visibility 10.0 miles
Clouds Few 2200 ft
Scattered Clouds 4200 ft
Scattered Clouds 8000 ft
Heat Index 101 °F
Dew Point 75 °F
Humidity 61%
Rainfall 0.05 in
Snow Depth Not available.
6:00 AM 6:59 PM
Waning Crescent, 20% visible
METAR TJSJ 291756Z 08015G24KT 10SM FEW022 SCT042 SCT080 32/23 A2998 RMK AO2 SLP151 VCSH N-S 60005 T03170233 10328 20261 58015

10-Day Weather Forecast

Almanac

Astronomy

Jul. 29, 2016 Rise Set
Actual Time
Civil Twilight
Nautical Twilight
Astronomical Twilight
Moon
Length of Visible Light
Length of Day
Tomorrow will be .
, % of the Moon is Illuminated

Today's Extremes

State Highs State Lows

Community

WunderPhotos

Upload Photos

1,928,393 photos uploaded!

WunderBlog® & News

Nearby

Air Quality

  Air Quality AQ Index Pollutant
Not available.

Snow Depth

Station Depth Elevation

Earthquake Activity

City Distance Mag. Time & Date
Minimum magnitude displayed is 2.5.

Coastal Water Temperatures

Place Temperature

Stations

Nearby Weather Stations

Station Location Temp. Windchill Dew Point Humidity Wind Precip. Elev Updated Type
                   

Watches & Warnings

There are currently no watches in effect.